Wendover Airport
KENV : now visible

Airfield :











YOU CAN JOIN US ON...

 
LOGIN :

Register | Disclaimer

   EN    FR    IT 

 









Legend :    VFR   Marginal VFR   IFR   Intensive IFR   Very Intensive IFR
Visi :
Ceiling :
>= 8 km
>= 3000ft
5 to 8 km
1000 to 3000 ft
1500m to 5 km
500 to 1000 ft
800 to 1500m
200 to 500 ft
< 800m
< 200 ft
Symbols :   Thunderstorms  Fog  Heavy snow  Heavy precipitations  Wind > 20 kt






- Airport Elevation : 4237 ft


KENV - Wendover

CURRENT METAR :
  • 191556Z AUTO 09005KT 10SM OVC100 25/12 A3007 RMK AO2 SLP136 T02500117 $

EXPIRED METARs :
  • 191456Z AUTO 17003KT 10SM BKN120 25/10 A3006 RMK AO2 LTG DSNT E SLP130 T02500100 53012 $
  • 191356Z AUTO 00000KT 10SM CLR 24/11 A3004 RMK AO2 SLP125 T02440106 $

TAF KENV
Valid from the 19 at 12:00 until the 20 at 12:00 UTC


191120Z 1912/2012 30013G22KT P6SM OVC120
FM191400 VRB05KT P6SM FEW080 BKN120
FM191700 14010KT P6SM VCSH SCT080 BKN120
FM200200 VRB05KT P6SM VCSH BKN080 OVC120
FM200900 VRB05KT P6SM BKN080 OVC120
KZLC FIR / North America



MET'MAP, your aeronautical weather chart ! - Copyright ORBIFLY December 2007 - Disclaimer

ORBIFLY MET'MAP TEAM :

Programming & Development : Alexandra Zaïnal
Original concept : Baudouin d'Aumeries
Technical & hardware support : Manuel Goepfert
Assistance : Marc-Olivier Méhu




SOURCES & CREDITS :

   NOAA       Earth
Advisory